Jork Valiant — CQEY — position and weather

sailwx.info

Track history (hours):
 
Tides and Currents Weather Stations Pressure Air Temp Water Temp Dewpoint Dewpoint Depression Visibility Wind Speed Wind Dir Waves Ship Positions

Jork Valiant

Last reported at 2017-Dec-15 16:06 UTC. Time now 2017-Dec-17 19:58 UTC.
Position N 09°51' W 016°40'.

Length 159 m; draft 6.5 m.

Type: Cargo ship. MMSI: 255805702.

Date/timePositionNaut miles runAvg speedWind from/ knotsBaromVisibWave heightAir tempDewpointWater temp
2017-Dec-15 16:06N 09°51' W 016°40'114.5
2017-Dec-15 16:00N 09°50' W 016°40'5014.3
2017-Dec-15 12:30N 09°17' W 016°01'5012.7
2017-Dec-15 08:35N 08°44' W 015°23'111.5
2017-Dec-15 08:30N 08°44' W 015°22'2215.0
2017-Dec-15 07:01N 08°29' W 015°05'015.6
2017-Dec-15 07:00N 08°29' W 015°05'1014.7
2017-Dec-15 06:21N 08°23' W 014°58'514.3
2017-Dec-15 06:00N 08°20' W 014°54'713.9
2017-Dec-15 05:30N 08°15' W 014°49'713.8
2017-Dec-15 05:00N 08°10' W 014°43'1613.9
2017-Dec-15 03:50N 08°00' W 014°31'1813.7
2017-Dec-15 02:30N 07°48' W 014°17'  
Track history (hours):
 
Tides and Currents Weather Stations Pressure Air Temp Water Temp Dewpoint Dewpoint Depression Visibility Wind Speed Wind Dir Waves Ship Positions

Jork Valiant

Last reported at 2017-Dec-15 16:06 UTC. Time now 2017-Dec-17 19:58 UTC.
Position N 09°51' W 016°40'.

Length 159 m; draft 6.5 m.

Type: Cargo ship. MMSI: 255805702.

Date/timePositionNaut miles runAvg speedWind from/ knotsBaromVisibWave heightAir tempDewpointWater temp
2017-Dec-15 16:06N 09°51' W 016°40'114.5
2017-Dec-15 16:00N 09°50' W 016°40'5014.3
2017-Dec-15 12:30N 09°17' W 016°01'5012.7
2017-Dec-15 08:35N 08°44' W 015°23'111.5
2017-Dec-15 08:30N 08°44' W 015°22'2215.0
2017-Dec-15 07:01N 08°29' W 015°05'015.6
2017-Dec-15 07:00N 08°29' W 015°05'1014.7
2017-Dec-15 06:21N 08°23' W 014°58'514.3
2017-Dec-15 06:00N 08°20' W 014°54'713.9
2017-Dec-15 05:30N 08°15' W 014°49'713.8
2017-Dec-15 05:00N 08°10' W 014°43'1613.9
2017-Dec-15 03:50N 08°00' W 014°31'1813.7
2017-Dec-15 02:30N 07°48' W 014°17'  

Dump ship's entire track history